createdAt,value
2022-09-12T00:01:30.369Z,20.88
2022-09-12T00:04:01.931Z,20.27
2022-09-12T00:06:32.248Z,20.67
2022-09-12T00:09:04.998Z,21.92
2022-09-12T00:11:33.487Z,21.10
2022-09-12T00:14:02.866Z,21.05
2022-09-12T00:16:33.860Z,20.38
2022-09-12T00:19:02.540Z,21.02
2022-09-12T00:21:31.055Z,23.70
2022-09-12T00:24:00.715Z,20.77
2022-09-12T00:26:28.986Z,21.23
2022-09-12T00:28:57.214Z,20.33
2022-09-12T00:31:27.743Z,19.60
2022-09-12T00:36:28.680Z,19.65
2022-09-12T00:38:57.454Z,19.75
2022-09-12T00:41:31.097Z,20.83
2022-09-12T00:44:01.994Z,20.67
2022-09-12T00:46:40.055Z,20.23
2022-09-12T00:49:15.240Z,22.55
2022-09-12T00:51:48.436Z,19.52
2022-09-12T00:54:22.250Z,20.85
2022-09-12T00:56:58.310Z,20.55
2022-09-12T00:59:32.383Z,19.90
2022-09-12T01:02:00.762Z,19.55
2022-09-12T01:04:30.258Z,19.30
2022-09-12T01:07:00.043Z,22.33
2022-09-12T01:09:28.292Z,20.27
2022-09-12T01:11:59.406Z,18.90
2022-09-12T01:14:27.781Z,20.50
2022-09-12T01:16:56.086Z,20.05
2022-09-12T01:20:40.997Z,19.95
2022-09-12T01:23:39.758Z,19.08
2022-09-12T01:26:41.577Z,20.27
2022-09-12T01:29:41.570Z,19.30
2022-09-12T01:32:20.343Z,20.10
2022-09-12T01:34:53.910Z,20.52
2022-09-12T01:37:34.190Z,22.88
2022-09-12T01:40:14.184Z,20.52
2022-09-12T01:42:48.302Z,20.50
2022-09-12T01:45:22.319Z,20.58
2022-09-12T01:47:58.843Z,22.40
2022-09-12T01:50:33.181Z,19.85
2022-09-12T01:53:06.259Z,20.55
2022-09-12T01:55:39.547Z,20.88
2022-09-12T01:58:13.235Z,19.77
2022-09-12T02:00:48.565Z,20.48
2022-09-12T02:03:22.813Z,24.08
2022-09-12T02:05:57.134Z,24.55
2022-09-12T02:08:32.362Z,20.88
2022-09-12T02:11:08.147Z,22.38
2022-09-12T02:13:43.335Z,24.13
2022-09-12T02:16:18.875Z,22.67
2022-09-12T02:18:55.026Z,22.52
2022-09-12T02:21:25.616Z,24.80
2022-09-12T02:23:59.376Z,21.75
2022-09-12T02:26:36.345Z,26.95
2022-09-12T02:29:05.791Z,23.05
2022-09-12T02:31:41.962Z,24.48
2022-09-12T02:34:28.656Z,25.35
2022-09-12T02:37:08.043Z,24.33
2022-09-12T02:39:37.032Z,23.83
2022-09-12T02:42:06.041Z,26.30
2022-09-12T02:44:36.009Z,27.70
2022-09-12T02:47:10.881Z,26.80
2022-09-12T02:49:40.836Z,27.75
2022-09-12T02:52:09.116Z,33.20
2022-09-12T02:54:38.225Z,38.97
2022-09-12T02:57:20.634Z,28.35
2022-09-12T02:59:53.648Z,30.33
2022-09-12T03:02:33.478Z,30.95
2022-09-12T03:05:20.555Z,28.93
2022-09-12T03:08:24.899Z,25.33
2022-09-12T03:11:13.965Z,28.05
2022-09-12T03:13:55.531Z,24.63
2022-09-12T03:16:34.626Z,23.60
2022-09-12T03:19:11.071Z,22.45
2022-09-12T03:21:54.454Z,26.63
2022-09-12T03:24:32.065Z,31.38
2022-09-12T03:27:09.573Z,25.30
2022-09-12T03:29:40.209Z,25.67
2022-09-12T03:34:36.695Z,28.80
2022-09-12T03:37:06.955Z,26.42
2022-09-12T03:39:35.351Z,29.15
2022-09-12T03:42:03.592Z,27.02
2022-09-12T03:44:31.850Z,27.27
2022-09-12T03:47:00.187Z,31.52
2022-09-12T03:49:28.418Z,29.67
2022-09-12T03:51:56.600Z,27.80
2022-09-12T03:54:26.386Z,28.58
2022-09-12T03:56:54.619Z,27.53
2022-09-12T03:59:22.805Z,30.42
2022-09-12T04:01:51.144Z,28.20
2022-09-12T04:04:19.380Z,30.70
2022-09-12T04:06:47.615Z,29.67
2022-09-12T04:09:15.876Z,33.22
2022-09-12T04:11:45.518Z,31.80
2022-09-12T04:14:13.779Z,28.75
2022-09-12T04:16:41.998Z,28.17
2022-09-12T04:19:12.503Z,28.73
2022-09-12T04:21:41.275Z,30.20
2022-09-12T04:24:09.522Z,30.92
2022-09-12T04:26:37.976Z,29.15
2022-09-12T04:29:07.592Z,30.10
2022-09-12T04:31:35.777Z,27.98
2022-09-12T04:34:04.720Z,30.25
2022-09-12T04:36:33.480Z,27.10
2022-09-12T04:39:02.800Z,30.55
2022-09-12T04:41:33.470Z,30.67
2022-09-12T04:46:36.166Z,30.88
2022-09-12T04:49:04.516Z,28.67
2022-09-12T04:51:35.086Z,28.10
2022-09-12T04:54:06.933Z,29.63
2022-09-12T04:56:39.586Z,29.63
2022-09-12T04:59:08.682Z,29.10
2022-09-12T05:01:38.432Z,27.67
2022-09-12T05:04:07.176Z,32.85
2022-09-12T05:06:38.230Z,28.10
2022-09-12T05:09:09.174Z,30.80
2022-09-12T05:12:03.893Z,29.52
2022-09-12T05:14:28.922Z,31.60
2022-09-12T05:17:00.794Z,30.55
2022-09-12T05:19:30.082Z,33.60
2022-09-12T05:21:58.965Z,31.25
2022-09-12T05:24:27.378Z,32.75
2022-09-12T05:26:55.802Z,33.85
2022-09-12T05:29:25.165Z,33.40
2022-09-12T05:31:53.763Z,35.80
2022-09-12T05:34:23.745Z,35.88
2022-09-12T05:36:51.997Z,40.67
2022-09-12T05:39:20.382Z,39.95
2022-09-12T05:41:48.803Z,36.70
2022-09-12T05:44:17.842Z,34.83
2022-09-12T05:46:50.373Z,35.58
2022-09-12T05:49:18.809Z,38.08
2022-09-12T05:51:48.382Z,39.78
2022-09-12T05:54:20.409Z,35.85
2022-09-12T05:56:49.959Z,37.00
2022-09-12T05:59:20.629Z,33.55
2022-09-12T06:04:18.184Z,36.03
2022-09-12T06:06:48.839Z,36.00
2022-09-12T06:11:47.260Z,35.67
2022-09-12T06:14:18.034Z,35.08
2022-09-12T06:16:47.136Z,39.22
2022-09-12T06:19:18.082Z,37.95
2022-09-12T06:21:49.487Z,34.70
2022-09-12T06:24:18.608Z,41.90
2022-09-12T06:26:47.361Z,36.47
2022-09-12T06:29:16.848Z,38.15
2022-09-12T06:31:46.018Z,36.17
2022-09-12T06:34:17.130Z,38.40
2022-09-12T06:36:49.627Z,36.47
2022-09-12T06:39:20.534Z,37.25
2022-09-12T06:41:49.812Z,43.47
2022-09-12T06:44:21.408Z,31.33
2022-09-12T06:46:50.332Z,35.63
2022-09-12T06:49:18.691Z,34.25
2022-09-12T06:51:46.885Z,34.42
2022-09-12T06:54:18.140Z,36.38
2022-09-12T06:56:46.664Z,32.55
2022-09-12T06:59:15.085Z,33.65
2022-09-12T07:01:43.492Z,31.45
2022-09-12T07:04:12.602Z,34.83
2022-09-12T07:06:44.053Z,34.40
2022-09-12T07:09:17.356Z,32.38
2022-09-12T07:11:47.286Z,31.48
2022-09-12T07:14:16.811Z,33.65
2022-09-12T07:16:45.393Z,30.00
2022-09-12T07:19:13.725Z,28.17
2022-09-12T07:21:42.132Z,29.90
2022-09-12T07:24:11.784Z,28.92
2022-09-12T07:26:42.639Z,33.70
2022-09-12T07:32:06.698Z,31.95
2022-09-12T07:34:35.738Z,27.88
2022-09-12T07:37:04.056Z,31.13
2022-09-12T07:39:32.423Z,25.60
2022-09-12T07:42:02.071Z,24.05
2022-09-12T07:44:30.430Z,22.92
2022-09-12T07:46:58.664Z,22.98
2022-09-12T07:49:26.897Z,20.92
2022-09-12T07:51:55.143Z,17.95
2022-09-12T07:54:23.873Z,15.82
2022-09-12T07:56:52.107Z,15.70
2022-09-12T07:59:48.348Z,16.00
2022-09-12T08:02:17.177Z,16.10
2022-09-12T08:04:48.306Z,14.55
2022-09-12T08:09:47.315Z,17.65
2022-09-12T08:12:16.503Z,14.20
2022-09-12T08:14:46.139Z,15.70
2022-09-12T08:17:14.437Z,22.55
2022-09-12T08:19:42.731Z,15.80
2022-09-12T08:22:11.241Z,15.02
2022-09-12T08:24:40.527Z,15.63
2022-09-12T08:27:09.205Z,13.65
2022-09-12T08:29:37.425Z,14.70
2022-09-12T08:32:07.137Z,12.82
2022-09-12T08:34:35.451Z,12.75
2022-09-12T08:37:04.118Z,10.93
2022-09-12T08:39:33.051Z,10.25
2022-09-12T08:42:04.044Z,12.27
2022-09-12T08:45:06.997Z,10.98
2022-09-12T08:47:40.267Z,10.15
2022-09-12T08:50:17.757Z,9.85
2022-09-12T08:52:55.970Z,9.43
2022-09-12T08:55:37.892Z,8.90
2022-09-12T08:58:16.117Z,8.40
2022-09-12T09:00:54.743Z,7.78
2022-09-12T09:03:50.966Z,8.45
2022-09-12T09:06:36.211Z,7.85
2022-09-12T09:09:13.591Z,7.88
2022-09-12T09:11:56.993Z,6.60
2022-09-12T09:15:09.850Z,8.18
2022-09-12T09:17:43.081Z,6.13
2022-09-12T09:20:30.522Z,7.28
2022-09-12T09:23:03.466Z,6.72
2022-09-12T09:25:44.969Z,9.80
2022-09-12T09:28:18.547Z,13.02
2022-09-12T09:30:47.592Z,7.18
2022-09-12T09:33:23.651Z,6.35
2022-09-12T09:36:02.449Z,6.25
2022-09-12T09:38:44.131Z,5.97
2022-09-12T09:41:28.060Z,7.57
2022-09-12T09:43:57.349Z,6.25
2022-09-12T09:46:25.969Z,6.28
2022-09-12T09:48:54.931Z,7.82
2022-09-12T09:51:33.497Z,7.50
2022-09-12T09:54:07.123Z,7.70
2022-09-12T09:56:40.047Z,7.43
2022-09-12T09:59:12.829Z,7.78
2022-09-12T10:01:49.108Z,8.77
2022-09-12T10:04:23.454Z,6.82
2022-09-12T10:06:56.228Z,7.07
2022-09-12T10:09:28.126Z,7.88
2022-09-12T10:11:58.688Z,7.70
2022-09-12T10:17:06.832Z,6.80
2022-09-12T10:19:38.153Z,6.47
2022-09-12T10:22:08.711Z,7.68
2022-09-12T10:27:15.985Z,6.95
2022-09-12T10:29:49.409Z,4.82
2022-09-12T10:32:30.618Z,5.97
2022-09-12T10:35:02.766Z,6.55
2022-09-12T10:37:36.079Z,9.98
2022-09-12T10:40:09.298Z,6.95
2022-09-12T10:42:52.561Z,4.97
2022-09-12T10:45:29.048Z,5.05
2022-09-12T10:48:04.160Z,7.20
2022-09-12T10:50:41.691Z,3.67
2022-09-12T10:53:21.815Z,4.35
2022-09-12T10:56:07.739Z,4.85
2022-09-12T10:59:07.841Z,4.13
2022-09-12T11:01:42.122Z,4.22
2022-09-12T11:04:30.941Z,5.38
2022-09-12T11:07:27.052Z,4.72
2022-09-12T11:10:04.877Z,4.40
2022-09-12T11:12:42.157Z,5.05
2022-09-12T11:15:33.184Z,4.25
2022-09-12T11:18:13.439Z,5.03
2022-09-12T11:21:20.663Z,5.60
2022-09-12T11:24:33.147Z,4.38
2022-09-12T11:27:22.922Z,4.85
2022-09-12T11:29:56.106Z,3.92
2022-09-12T11:32:57.122Z,5.85
2022-09-12T11:35:27.536Z,4.43
2022-09-12T11:38:46.867Z,4.95
2022-09-12T11:41:22.730Z,5.55
2022-09-12T11:43:58.230Z,7.60
2022-09-12T11:46:36.254Z,4.72
2022-09-12T11:49:18.278Z,7.35
2022-09-12T11:51:53.607Z,5.22
2022-09-12T11:54:28.561Z,5.20
2022-09-12T11:57:09.913Z,3.63
2022-09-12T11:59:46.805Z,5.40
2022-09-12T12:02:27.739Z,3.95
2022-09-12T12:05:07.090Z,6.68
2022-09-12T12:07:45.650Z,7.43
2022-09-12T12:10:28.858Z,6.22
2022-09-12T12:12:58.643Z,4.85
2022-09-12T12:15:29.173Z,5.25
2022-09-12T12:20:35.618Z,5.60
2022-09-12T12:23:04.571Z,3.85
2022-09-12T12:25:52.811Z,3.33
2022-09-12T12:28:59.365Z,4.07
2022-09-12T12:31:29.172Z,5.07
2022-09-12T12:34:24.027Z,4.15
2022-09-12T12:36:52.279Z,4.65
2022-09-12T12:40:05.043Z,3.47
2022-09-12T12:43:06.141Z,4.57
2022-09-12T12:46:10.870Z,3.60
2022-09-12T12:48:59.922Z,4.68
2022-09-12T12:51:58.492Z,4.60
2022-09-12T12:54:53.628Z,3.92
2022-09-12T12:57:47.472Z,4.65
2022-09-12T13:00:35.293Z,3.75
2022-09-12T13:03:12.111Z,5.32
2022-09-12T13:05:46.006Z,4.43
2022-09-12T13:08:31.576Z,4.20
2022-09-12T13:11:03.011Z,4.47
2022-09-12T13:13:37.634Z,3.95
2022-09-12T13:16:06.411Z,4.07
2022-09-12T13:18:44.571Z,5.95
2022-09-12T13:21:17.858Z,4.43
2022-09-12T13:23:47.765Z,5.63
2022-09-12T13:26:26.276Z,4.72
2022-09-12T13:29:17.879Z,5.55
2022-09-12T13:31:48.496Z,4.45
2022-09-12T13:34:21.976Z,4.30
2022-09-12T13:37:27.628Z,6.20
2022-09-12T13:40:07.437Z,5.43
2022-09-12T13:42:43.568Z,5.55
2022-09-12T13:45:20.677Z,9.48
2022-09-12T13:47:56.606Z,6.50
2022-09-12T13:50:29.333Z,5.95
2022-09-12T13:53:02.453Z,5.50
2022-09-12T13:55:33.993Z,7.57
2022-09-12T13:58:04.821Z,6.45
2022-09-12T14:00:35.426Z,7.03
2022-09-12T14:03:45.247Z,7.13
2022-09-12T14:06:14.676Z,7.33
2022-09-12T14:08:45.087Z,9.18
2022-09-12T14:11:22.347Z,7.45
2022-09-12T14:13:52.650Z,6.65
2022-09-12T14:16:23.422Z,7.10
2022-09-12T14:18:52.579Z,6.43
2022-09-12T14:21:34.978Z,7.20
2022-09-12T14:24:08.592Z,6.10
2022-09-12T14:26:40.240Z,9.50
2022-09-12T14:29:10.105Z,7.93
2022-09-12T14:31:41.276Z,7.43
2022-09-12T14:34:13.605Z,6.45
2022-09-12T14:36:46.361Z,6.85
2022-09-12T14:39:30.118Z,7.32
2022-09-12T14:42:08.477Z,6.85
2022-09-12T14:44:37.715Z,7.78
2022-09-12T14:47:21.174Z,6.93
2022-09-12T14:49:51.647Z,9.05
2022-09-12T14:55:01.958Z,6.13
2022-09-12T14:57:39.329Z,9.55
2022-09-12T15:00:20.968Z,7.80
2022-09-12T15:02:50.545Z,7.65
2022-09-12T15:05:23.941Z,7.38
2022-09-12T15:08:01.223Z,6.30
2022-09-12T15:10:35.428Z,7.90
2022-09-12T15:13:19.412Z,7.38
2022-09-12T15:15:51.140Z,7.32
2022-09-12T15:18:21.105Z,9.68
2022-09-12T15:20:52.818Z,7.32
2022-09-12T15:23:33.130Z,8.07
2022-09-12T15:26:03.477Z,7.30
2022-09-12T15:28:33.535Z,5.82
2022-09-12T15:31:09.463Z,7.45
2022-09-12T15:33:37.733Z,6.93
2022-09-12T15:36:14.017Z,7.22
2022-09-12T15:38:42.403Z,5.50
2022-09-12T15:41:18.111Z,6.60
2022-09-12T15:43:47.078Z,6.07
2022-09-12T15:46:19.058Z,8.18
2022-09-12T15:48:47.760Z,6.97
2022-09-12T15:51:18.675Z,13.02
2022-09-12T15:53:48.471Z,5.25
2022-09-12T15:56:19.779Z,6.47
2022-09-12T15:58:58.365Z,11.10
2022-09-12T16:01:28.358Z,6.47
2022-09-12T16:03:56.995Z,6.88
2022-09-12T16:06:25.315Z,8.10
2022-09-12T16:08:53.573Z,6.45
2022-09-12T16:11:26.087Z,5.93
2022-09-12T16:13:56.651Z,7.00
2022-09-12T16:18:53.348Z,4.93
2022-09-12T16:21:21.570Z,6.03
2022-09-12T16:23:50.382Z,5.38
2022-09-12T16:26:19.361Z,7.57
2022-09-12T16:28:49.179Z,11.25
2022-09-12T16:31:17.732Z,7.15
2022-09-12T16:33:46.052Z,7.00
2022-09-12T16:36:16.862Z,5.60
2022-09-12T16:38:46.855Z,6.85
2022-09-12T16:41:17.198Z,5.78
2022-09-12T16:43:46.049Z,5.80
2022-09-12T16:46:19.000Z,7.20
2022-09-12T16:48:52.507Z,5.20
2022-09-12T16:51:24.894Z,6.78
2022-09-12T16:53:53.664Z,7.30
2022-09-12T16:56:22.309Z,5.35
2022-09-12T16:58:50.986Z,5.07
2022-09-12T17:01:23.364Z,5.60
2022-09-12T17:03:54.846Z,13.20
2022-09-12T17:06:23.402Z,12.35
2022-09-12T17:08:54.072Z,6.40
2022-09-12T17:11:26.427Z,7.88
2022-09-12T17:14:06.227Z,6.30
2022-09-12T17:16:39.155Z,7.43
2022-09-12T17:19:08.792Z,4.43
2022-09-12T17:21:37.140Z,6.50
2022-09-12T17:24:06.073Z,6.93
2022-09-12T17:26:34.538Z,5.68
2022-09-12T17:29:03.128Z,4.85
2022-09-12T17:31:32.069Z,7.90
2022-09-12T17:34:03.143Z,6.65
2022-09-12T17:36:32.533Z,6.47
2022-09-12T17:39:02.250Z,6.97
2022-09-12T17:41:32.834Z,5.50
2022-09-12T17:46:35.023Z,4.90
2022-09-12T17:49:07.659Z,5.07
2022-09-12T17:51:36.445Z,7.00
2022-09-12T17:54:08.252Z,5.45
2022-09-12T17:56:38.026Z,7.45
2022-09-12T17:59:08.303Z,5.78
2022-09-12T18:01:54.464Z,6.60
2022-09-12T18:04:24.242Z,6.13
2022-09-12T18:06:52.814Z,6.03
2022-09-12T18:09:23.361Z,6.35
2022-09-12T18:14:20.726Z,8.07
2022-09-12T18:16:49.604Z,6.53
2022-09-12T18:19:18.740Z,7.68
2022-09-12T18:21:48.329Z,8.45
2022-09-12T18:24:16.827Z,7.93
2022-09-12T18:26:45.123Z,9.10
2022-09-12T18:29:16.781Z,11.10
2022-09-12T18:31:46.728Z,7.40
2022-09-12T18:34:15.858Z,9.70
2022-09-12T18:36:46.402Z,6.10
2022-09-12T18:41:45.077Z,5.90
2022-09-12T18:44:13.896Z,5.63
2022-09-12T18:46:42.290Z,8.57
2022-09-12T18:49:10.746Z,9.07
2022-09-12T18:51:41.937Z,7.40
2022-09-12T18:54:15.577Z,10.55
2022-09-12T18:56:45.604Z,8.05
2022-09-12T18:59:14.949Z,7.68
2022-09-12T19:01:44.304Z,9.55
2022-09-12T19:04:15.050Z,7.88
2022-09-12T19:06:46.002Z,6.10
2022-09-12T19:09:20.579Z,7.18
2022-09-12T19:11:52.607Z,7.80
2022-09-12T19:14:24.874Z,6.18
2022-09-12T19:16:53.788Z,8.20
2022-09-12T19:19:23.257Z,7.20
2022-09-12T19:21:51.644Z,5.75
2022-09-12T19:24:21.860Z,6.38
2022-09-12T19:26:50.933Z,8.32
2022-09-12T19:29:19.525Z,8.93
2022-09-12T19:31:47.891Z,8.13
2022-09-12T19:34:16.562Z,9.10
2022-09-12T19:36:46.602Z,8.90
2022-09-12T19:41:46.371Z,7.15
2022-09-12T19:44:14.941Z,8.23
2022-09-12T19:46:43.467Z,6.32
2022-09-12T19:49:13.253Z,8.13
2022-09-12T19:51:42.005Z,10.93
2022-09-12T19:54:10.574Z,9.60
2022-09-12T19:56:38.845Z,9.25
2022-09-12T19:59:08.670Z,7.82
2022-09-12T20:01:37.771Z,10.60
2022-09-12T20:04:06.871Z,11.15
2022-09-12T20:06:35.801Z,11.20
2022-09-12T20:09:04.570Z,11.38
2022-09-12T20:11:32.960Z,14.10
2022-09-12T20:14:01.338Z,7.88
2022-09-12T20:16:33.566Z,8.60
2022-09-12T20:19:06.087Z,9.45
2022-09-12T20:21:36.272Z,10.65
2022-09-12T20:24:07.113Z,11.60
2022-09-12T20:26:35.834Z,11.70
2022-09-12T20:29:04.887Z,10.88
2022-09-12T20:31:35.256Z,13.15
2022-09-12T20:34:03.940Z,8.70
2022-09-12T20:36:32.238Z,12.35
2022-09-12T20:39:02.526Z,11.77
2022-09-12T20:41:33.327Z,12.30
2022-09-12T20:44:01.637Z,12.43
2022-09-12T20:46:30.413Z,12.30
2022-09-12T20:49:00.562Z,13.70
2022-09-12T20:51:30.336Z,13.98
2022-09-12T20:54:00.035Z,11.55
2022-09-12T20:56:29.743Z,12.50
2022-09-12T20:58:58.820Z,13.93
2022-09-12T21:01:29.189Z,10.18
2022-09-12T21:03:58.866Z,11.75
2022-09-12T21:06:28.773Z,11.02
2022-09-12T21:09:00.539Z,11.55
2022-09-12T21:11:29.903Z,9.88
2022-09-12T21:13:58.904Z,19.38
2022-09-12T21:16:27.479Z,16.17
2022-09-12T21:18:57.509Z,15.88
2022-09-12T21:21:27.895Z,14.43
2022-09-12T21:23:59.887Z,15.93
2022-09-12T21:26:28.382Z,13.50
2022-09-12T21:28:56.618Z,14.05
2022-09-12T21:31:25.869Z,14.30
2022-09-12T21:33:54.303Z,13.60
2022-09-12T21:36:22.533Z,15.50
2022-09-12T21:38:52.046Z,12.10
2022-09-12T21:41:20.295Z,12.95
2022-09-12T21:43:48.578Z,12.00
2022-09-12T21:46:17.013Z,12.10
2022-09-12T21:48:45.310Z,11.32
2022-09-12T21:51:13.538Z,13.65
2022-09-12T21:53:42.492Z,10.40
2022-09-12T21:56:12.170Z,11.95
2022-09-12T21:58:40.434Z,12.30
2022-09-12T22:01:09.690Z,12.27
2022-09-12T22:03:37.960Z,13.07
2022-09-12T22:06:07.997Z,11.25
2022-09-12T22:08:38.836Z,11.60
2022-09-12T22:11:10.917Z,11.40
2022-09-12T22:13:43.344Z,14.48
2022-09-12T22:16:12.665Z,13.48
2022-09-12T22:18:41.234Z,11.98
2022-09-12T22:21:13.334Z,12.52
2022-09-12T22:23:59.281Z,12.18
2022-09-12T22:26:29.222Z,14.30
2022-09-12T22:28:57.604Z,15.43
2022-09-12T22:31:26.929Z,13.70
2022-09-12T22:33:57.035Z,12.38
2022-09-12T22:36:30.455Z,12.48
2022-09-12T22:38:59.697Z,15.45
2022-09-12T22:41:29.446Z,20.13
2022-09-12T22:43:58.604Z,22.00
2022-09-12T22:46:27.490Z,16.00
2022-09-12T22:48:55.961Z,16.27
2022-09-12T22:51:24.633Z,14.32
2022-09-12T22:53:53.768Z,12.45
2022-09-12T22:56:22.500Z,16.48
2022-09-12T22:58:52.392Z,13.50
2022-09-12T23:01:20.906Z,17.63
2022-09-12T23:03:49.209Z,12.35
2022-09-12T23:06:18.964Z,13.85
2022-09-12T23:08:47.269Z,12.33
2022-09-12T23:11:19.032Z,11.35
2022-09-12T23:13:49.632Z,14.20
2022-09-12T23:18:49.445Z,14.82
2022-09-12T23:21:21.175Z,11.77
2022-09-12T23:23:49.868Z,14.25
2022-09-12T23:26:20.248Z,11.45
2022-09-12T23:28:50.674Z,12.80
2022-09-12T23:31:20.788Z,12.63
2022-09-12T23:33:49.503Z,11.48
2022-09-12T23:36:18.001Z,12.23
2022-09-12T23:38:48.072Z,12.90
2022-09-12T23:41:17.967Z,13.98
2022-09-12T23:43:47.041Z,11.93
2022-09-12T23:46:17.221Z,12.38
2022-09-12T23:48:46.853Z,13.90
2022-09-12T23:51:15.551Z,11.32
2022-09-12T23:53:44.079Z,13.25
2022-09-12T23:56:12.538Z,14.95
2022-09-12T23:58:40.757Z,11.80
